sensor_id;sensor_type;location;lat;lon;timestamp;P1;durP1;ratioP1;P2;durP2;ratioP2
20241;SDS011;10279;46.388;8.116;2023-03-18T00:01:33;1.53;;;1.43;;
20241;SDS011;10279;46.388;8.116;2023-03-18T00:04:00;3.27;;;1.50;;
20241;SDS011;10279;46.388;8.116;2023-03-18T00:06:29;3.77;;;1.70;;
20241;SDS011;10279;46.388;8.116;2023-03-18T00:08:57;2.40;;;1.47;;
20241;SDS011;10279;46.388;8.116;2023-03-18T00:11:24;2.33;;;1.53;;
20241;SDS011;10279;46.388;8.116;2023-03-18T00:13:52;1.87;;;1.30;;
20241;SDS011;10279;46.388;8.116;2023-03-18T00:16:24;1.57;;;1.40;;
20241;SDS011;10279;46.388;8.116;2023-03-18T00:18:52;2.50;;;1.70;;
20241;SDS011;10279;46.388;8.116;2023-03-18T00:21:20;2.50;;;1.60;;
20241;SDS011;10279;46.388;8.116;2023-03-18T00:23:48;1.80;;;1.40;;
20241;SDS011;10279;46.388;8.116;2023-03-18T00:26:22;1.57;;;1.40;;
20241;SDS011;10279;46.388;8.116;2023-03-18T00:28:50;2.43;;;1.67;;
20241;SDS011;10279;46.388;8.116;2023-03-18T00:31:18;2.67;;;1.60;;
20241;SDS011;10279;46.388;8.116;2023-03-18T00:33:46;2.10;;;1.60;;
20241;SDS011;10279;46.388;8.116;2023-03-18T00:36:15;1.87;;;1.67;;
20241;SDS011;10279;46.388;8.116;2023-03-18T00:38:45;2.87;;;1.50;;
20241;SDS011;10279;46.388;8.116;2023-03-18T00:41:16;2.73;;;1.23;;
20241;SDS011;10279;46.388;8.116;2023-03-18T00:43:44;2.00;;;1.50;;
20241;SDS011;10279;46.388;8.116;2023-03-18T00:46:13;2.50;;;1.27;;
20241;SDS011;10279;46.388;8.116;2023-03-18T00:48:45;2.13;;;1.40;;
20241;SDS011;10279;46.388;8.116;2023-03-18T00:51:13;2.10;;;1.40;;
20241;SDS011;10279;46.388;8.116;2023-03-18T00:53:43;2.87;;;1.60;;
20241;SDS011;10279;46.388;8.116;2023-03-18T00:56:12;1.70;;;1.27;;
20241;SDS011;10279;46.388;8.116;2023-03-18T00:58:40;2.53;;;1.70;;
20241;SDS011;10279;46.388;8.116;2023-03-18T01:01:08;3.70;;;1.30;;
20241;SDS011;10279;46.388;8.116;2023-03-18T01:03:35;2.10;;;1.50;;
20241;SDS011;10279;46.388;8.116;2023-03-18T01:06:03;3.73;;;1.43;;
20241;SDS011;10279;46.388;8.116;2023-03-18T01:08:31;2.03;;;1.10;;
20241;SDS011;10279;46.388;8.116;2023-03-18T01:10:58;2.40;;;1.23;;
20241;SDS011;10279;46.388;8.116;2023-03-18T01:13:26;2.17;;;1.17;;
20241;SDS011;10279;46.388;8.116;2023-03-18T01:15:53;2.00;;;1.17;;
20241;SDS011;10279;46.388;8.116;2023-03-18T01:18:22;1.43;;;1.10;;
20241;SDS011;10279;46.388;8.116;2023-03-18T01:20:49;2.13;;;1.37;;
20241;SDS011;10279;46.388;8.116;2023-03-18T01:23:17;1.80;;;1.27;;
20241;SDS011;10279;46.388;8.116;2023-03-18T01:25:45;2.90;;;1.30;;
20241;SDS011;10279;46.388;8.116;2023-03-18T01:28:12;2.80;;;1.60;;
20241;SDS011;10279;46.388;8.116;2023-03-18T01:30:40;3.43;;;1.43;;
20241;SDS011;10279;46.388;8.116;2023-03-18T01:33:07;1.47;;;1.20;;
20241;SDS011;10279;46.388;8.116;2023-03-18T01:35:35;1.30;;;1.17;;
20241;SDS011;10279;46.388;8.116;2023-03-18T01:38:03;1.77;;;1.20;;
20241;SDS011;10279;46.388;8.116;2023-03-18T01:40:32;1.47;;;0.90;;
20241;SDS011;10279;46.388;8.116;2023-03-18T01:43:10;2.37;;;1.47;;
20241;SDS011;10279;46.388;8.116;2023-03-18T01:45:38;2.37;;;1.37;;
20241;SDS011;10279;46.388;8.116;2023-03-18T01:48:07;1.30;;;1.10;;
20241;SDS011;10279;46.388;8.116;2023-03-18T01:50:37;3.90;;;1.10;;
20241;SDS011;10279;46.388;8.116;2023-03-18T01:53:12;2.53;;;1.50;;
20241;SDS011;10279;46.388;8.116;2023-03-18T01:55:41;1.53;;;1.20;;
20241;SDS011;10279;46.388;8.116;2023-03-18T01:58:18;1.97;;;1.03;;
20241;SDS011;10279;46.388;8.116;2023-03-18T02:00:48;2.00;;;1.20;;
20241;SDS011;10279;46.388;8.116;2023-03-18T02:03:18;2.70;;;1.40;;
20241;SDS011;10279;46.388;8.116;2023-03-18T02:05:47;1.70;;;1.10;;
20241;SDS011;10279;46.388;8.116;2023-03-18T02:08:16;2.50;;;1.27;;
20241;SDS011;10279;46.388;8.116;2023-03-18T02:10:43;1.57;;;1.27;;
20241;SDS011;10279;46.388;8.116;2023-03-18T02:13:11;1.17;;;1.07;;
20241;SDS011;10279;46.388;8.116;2023-03-18T02:16:14;1.90;;;1.30;;
20241;SDS011;10279;46.388;8.116;2023-03-18T02:18:36;1.53;;;1.33;;
20241;SDS011;10279;46.388;8.116;2023-03-18T02:21:09;1.73;;;1.50;;
20241;SDS011;10279;46.388;8.116;2023-03-18T02:24:03;2.13;;;1.10;;
20241;SDS011;10279;46.388;8.116;2023-03-18T02:28:58;1.27;;;1.10;;
20241;SDS011;10279;46.388;8.116;2023-03-18T02:31:30;1.03;;;0.93;;
20241;SDS011;10279;46.388;8.116;2023-03-18T02:33:59;2.97;;;1.33;;
20241;SDS011;10279;46.388;8.116;2023-03-18T02:36:28;1.93;;;1.30;;
20241;SDS011;10279;46.388;8.116;2023-03-18T02:38:56;2.60;;;1.10;;
20241;SDS011;10279;46.388;8.116;2023-03-18T02:41:27;2.47;;;1.20;;
20241;SDS011;10279;46.388;8.116;2023-03-18T02:43:54;1.30;;;1.13;;
20241;SDS011;10279;46.388;8.116;2023-03-18T02:46:26;1.63;;;1.20;;
20241;SDS011;10279;46.388;8.116;2023-03-18T02:49:01;2.33;;;1.10;;
20241;SDS011;10279;46.388;8.116;2023-03-18T02:51:30;1.33;;;1.10;;
20241;SDS011;10279;46.388;8.116;2023-03-18T02:53:59;2.40;;;1.27;;
20241;SDS011;10279;46.388;8.116;2023-03-18T02:56:27;1.83;;;1.20;;
20241;SDS011;10279;46.388;8.116;2023-03-18T02:58:55;1.20;;;1.10;;
20241;SDS011;10279;46.388;8.116;2023-03-18T03:01:23;1.70;;;1.40;;
20241;SDS011;10279;46.388;8.116;2023-03-18T03:03:51;2.87;;;1.10;;
20241;SDS011;10279;46.388;8.116;2023-03-18T03:06:18;3.00;;;1.50;;
20241;SDS011;10279;46.388;8.116;2023-03-18T03:08:46;1.90;;;1.23;;
20241;SDS011;10279;46.388;8.116;2023-03-18T03:11:13;1.67;;;1.03;;
20241;SDS011;10279;46.388;8.116;2023-03-18T03:13:41;1.13;;;0.83;;
20241;SDS011;10279;46.388;8.116;2023-03-18T03:16:13;1.23;;;0.93;;
20241;SDS011;10279;46.388;8.116;2023-03-18T03:18:41;1.97;;;1.20;;
20241;SDS011;10279;46.388;8.116;2023-03-18T03:21:09;3.17;;;1.33;;
20241;SDS011;10279;46.388;8.116;2023-03-18T03:23:36;3.77;;;1.20;;
20241;SDS011;10279;46.388;8.116;2023-03-18T03:26:04;1.43;;;1.10;;
20241;SDS011;10279;46.388;8.116;2023-03-18T03:28:32;2.87;;;1.30;;
20241;SDS011;10279;46.388;8.116;2023-03-18T03:31:00;1.33;;;1.00;;
20241;SDS011;10279;46.388;8.116;2023-03-18T03:33:27;1.23;;;1.10;;
20241;SDS011;10279;46.388;8.116;2023-03-18T03:35:55;2.13;;;1.50;;
20241;SDS011;10279;46.388;8.116;2023-03-18T03:38:24;1.83;;;1.30;;
20241;SDS011;10279;46.388;8.116;2023-03-18T03:40:51;2.03;;;1.20;;
20241;SDS011;10279;46.388;8.116;2023-03-18T03:43:19;1.73;;;1.30;;
20241;SDS011;10279;46.388;8.116;2023-03-18T03:45:47;1.53;;;1.10;;
20241;SDS011;10279;46.388;8.116;2023-03-18T03:48:15;1.33;;;1.07;;
20241;SDS011;10279;46.388;8.116;2023-03-18T03:50:42;3.23;;;1.37;;
20241;SDS011;10279;46.388;8.116;2023-03-18T03:53:10;1.30;;;1.20;;
20241;SDS011;10279;46.388;8.116;2023-03-18T03:55:37;1.47;;;1.10;;
20241;SDS011;10279;46.388;8.116;2023-03-18T03:58:05;1.40;;;1.30;;
20241;SDS011;10279;46.388;8.116;2023-03-18T04:00:32;1.30;;;1.20;;
20241;SDS011;10279;46.388;8.116;2023-03-18T04:03:03;2.70;;;1.40;;
20241;SDS011;10279;46.388;8.116;2023-03-18T04:05:31;3.50;;;1.50;;
20241;SDS011;10279;46.388;8.116;2023-03-18T04:07:58;1.37;;;1.10;;
20241;SDS011;10279;46.388;8.116;2023-03-18T04:10:26;1.60;;;1.40;;
20241;SDS011;10279;46.388;8.116;2023-03-18T04:12:53;1.27;;;1.07;;
20241;SDS011;10279;46.388;8.116;2023-03-18T04:15:21;2.13;;;1.17;;
20241;SDS011;10279;46.388;8.116;2023-03-18T04:17:49;1.50;;;0.90;;
20241;SDS011;10279;46.388;8.116;2023-03-18T04:20:16;1.27;;;1.17;;
20241;SDS011;10279;46.388;8.116;2023-03-18T04:22:44;1.97;;;1.40;;
20241;SDS011;10279;46.388;8.116;2023-03-18T04:25:12;1.60;;;1.17;;
20241;SDS011;10279;46.388;8.116;2023-03-18T04:27:42;2.27;;;1.20;;
20241;SDS011;10279;46.388;8.116;2023-03-18T04:30:10;1.67;;;1.20;;
20241;SDS011;10279;46.388;8.116;2023-03-18T04:32:38;1.33;;;1.10;;
20241;SDS011;10279;46.388;8.116;2023-03-18T04:35:06;1.27;;;1.17;;
20241;SDS011;10279;46.388;8.116;2023-03-18T04:37:34;2.13;;;1.10;;
20241;SDS011;10279;46.388;8.116;2023-03-18T04:40:03;1.40;;;0.97;;
20241;SDS011;10279;46.388;8.116;2023-03-18T04:42:33;1.30;;;1.20;;
20241;SDS011;10279;46.388;8.116;2023-03-18T04:45:00;2.23;;;1.23;;
20241;SDS011;10279;46.388;8.116;2023-03-18T04:47:28;1.93;;;1.40;;
20241;SDS011;10279;46.388;8.116;2023-03-18T04:49:57;2.80;;;1.17;;
20241;SDS011;10279;46.388;8.116;2023-03-18T04:52:25;1.77;;;0.97;;
20241;SDS011;10279;46.388;8.116;2023-03-18T04:54:52;1.70;;;1.27;;
20241;SDS011;10279;46.388;8.116;2023-03-18T04:57:20;1.73;;;1.23;;
20241;SDS011;10279;46.388;8.116;2023-03-18T04:59:48;1.27;;;1.17;;
20241;SDS011;10279;46.388;8.116;2023-03-18T05:02:15;2.03;;;1.30;;
20241;SDS011;10279;46.388;8.116;2023-03-18T05:04:43;1.60;;;0.90;;
20241;SDS011;10279;46.388;8.116;2023-03-18T05:07:11;1.47;;;1.00;;
20241;SDS011;10279;46.388;8.116;2023-03-18T05:09:41;2.43;;;1.50;;
20241;SDS011;10279;46.388;8.116;2023-03-18T05:12:12;1.43;;;1.20;;
20241;SDS011;10279;46.388;8.116;2023-03-18T05:14:43;1.80;;;1.40;;
20241;SDS011;10279;46.388;8.116;2023-03-18T05:17:11;1.83;;;1.53;;
20241;SDS011;10279;46.388;8.116;2023-03-18T05:19:44;1.83;;;1.10;;
20241;SDS011;10279;46.388;8.116;2023-03-18T05:22:14;1.23;;;1.13;;
20241;SDS011;10279;46.388;8.116;2023-03-18T05:24:43;1.63;;;1.10;;
20241;SDS011;10279;46.388;8.116;2023-03-18T05:27:12;3.33;;;1.33;;
20241;SDS011;10279;46.388;8.116;2023-03-18T05:29:40;1.97;;;1.10;;
20241;SDS011;10279;46.388;8.116;2023-03-18T05:32:08;2.40;;;1.00;;
20241;SDS011;10279;46.388;8.116;2023-03-18T05:34:36;4.73;;;1.33;;
20241;SDS011;10279;46.388;8.116;2023-03-18T05:37:04;1.70;;;1.17;;
20241;SDS011;10279;46.388;8.116;2023-03-18T05:39:32;2.50;;;1.30;;
20241;SDS011;10279;46.388;8.116;2023-03-18T05:41:59;4.03;;;1.23;;
20241;SDS011;10279;46.388;8.116;2023-03-18T05:44:28;2.00;;;1.40;;
20241;SDS011;10279;46.388;8.116;2023-03-18T05:46:55;3.63;;;1.80;;
20241;SDS011;10279;46.388;8.116;2023-03-18T05:49:23;2.07;;;1.27;;
20241;SDS011;10279;46.388;8.116;2023-03-18T05:51:50;2.37;;;1.30;;
20241;SDS011;10279;46.388;8.116;2023-03-18T05:54:20;1.97;;;1.10;;
20241;SDS011;10279;46.388;8.116;2023-03-18T05:56:47;1.43;;;1.10;;
20241;SDS011;10279;46.388;8.116;2023-03-18T05:59:18;1.67;;;1.33;;
20241;SDS011;10279;46.388;8.116;2023-03-18T06:01:45;2.83;;;1.70;;
20241;SDS011;10279;46.388;8.116;2023-03-18T06:04:14;1.67;;;1.20;;
20241;SDS011;10279;46.388;8.116;2023-03-18T06:06:45;1.70;;;1.40;;
20241;SDS011;10279;46.388;8.116;2023-03-18T06:09:14;2.90;;;1.60;;
20241;SDS011;10279;46.388;8.116;2023-03-18T06:11:42;2.67;;;1.60;;
20241;SDS011;10279;46.388;8.116;2023-03-18T06:14:11;2.33;;;1.43;;
20241;SDS011;10279;46.388;8.116;2023-03-18T06:16:39;2.27;;;1.47;;
20241;SDS011;10279;46.388;8.116;2023-03-18T06:19:07;2.67;;;1.43;;
20241;SDS011;10279;46.388;8.116;2023-03-18T06:21:36;4.93;;;1.90;;
20241;SDS011;10279;46.388;8.116;2023-03-18T06:24:05;2.00;;;1.30;;
20241;SDS011;10279;46.388;8.116;2023-03-18T06:26:32;2.40;;;1.37;;
20241;SDS011;10279;46.388;8.116;2023-03-18T06:28:59;1.93;;;1.40;;
20241;SDS011;10279;46.388;8.116;2023-03-18T06:31:27;1.90;;;1.20;;
20241;SDS011;10279;46.388;8.116;2023-03-18T06:33:54;1.57;;;1.20;;
20241;SDS011;10279;46.388;8.116;2023-03-18T06:36:22;2.53;;;1.20;;
20241;SDS011;10279;46.388;8.116;2023-03-18T06:38:49;1.27;;;1.17;;
20241;SDS011;10279;46.388;8.116;2023-03-18T06:41:17;3.10;;;1.30;;
20241;SDS011;10279;46.388;8.116;2023-03-18T06:43:44;2.70;;;1.50;;
20241;SDS011;10279;46.388;8.116;2023-03-18T06:46:16;1.47;;;1.33;;
20241;SDS011;10279;46.388;8.116;2023-03-18T06:48:47;2.70;;;1.50;;
20241;SDS011;10279;46.388;8.116;2023-03-18T06:51:14;3.10;;;1.40;;
20241;SDS011;10279;46.388;8.116;2023-03-18T06:53:41;2.60;;;1.70;;
20241;SDS011;10279;46.388;8.116;2023-03-18T06:56:09;3.57;;;1.30;;
20241;SDS011;10279;46.388;8.116;2023-03-18T06:58:38;3.87;;;1.87;;
20241;SDS011;10279;46.388;8.116;2023-03-18T07:01:06;1.93;;;1.20;;
20241;SDS011;10279;46.388;8.116;2023-03-18T07:03:34;1.20;;;1.10;;
20241;SDS011;10279;46.388;8.116;2023-03-18T07:06:01;2.53;;;1.20;;
20241;SDS011;10279;46.388;8.116;2023-03-18T07:08:31;1.60;;;1.13;;
20241;SDS011;10279;46.388;8.116;2023-03-18T07:10:58;1.43;;;1.20;;
20241;SDS011;10279;46.388;8.116;2023-03-18T07:13:26;1.47;;;1.10;;
20241;SDS011;10279;46.388;8.116;2023-03-18T07:15:54;2.27;;;1.37;;
20241;SDS011;10279;46.388;8.116;2023-03-18T07:18:25;1.90;;;1.10;;
20241;SDS011;10279;46.388;8.116;2023-03-18T07:20:53;1.93;;;1.50;;
20241;SDS011;10279;46.388;8.116;2023-03-18T07:23:20;1.60;;;1.43;;
20241;SDS011;10279;46.388;8.116;2023-03-18T07:25:48;1.87;;;1.30;;
20241;SDS011;10279;46.388;8.116;2023-03-18T07:28:15;3.53;;;1.40;;
20241;SDS011;10279;46.388;8.116;2023-03-18T07:30:43;1.70;;;1.20;;
20241;SDS011;10279;46.388;8.116;2023-03-18T07:33:11;1.00;;;0.90;;
20241;SDS011;10279;46.388;8.116;2023-03-18T07:35:38;2.10;;;1.10;;
20241;SDS011;10279;46.388;8.116;2023-03-18T07:38:10;2.80;;;1.20;;
20241;SDS011;10279;46.388;8.116;2023-03-18T07:40:38;3.13;;;1.13;;
20241;SDS011;10279;46.388;8.116;2023-03-18T07:43:06;3.17;;;1.30;;
20241;SDS011;10279;46.388;8.116;2023-03-18T07:45:33;3.43;;;1.30;;
20241;SDS011;10279;46.388;8.116;2023-03-18T07:48:00;2.20;;;1.43;;
20241;SDS011;10279;46.388;8.116;2023-03-18T07:50:28;2.07;;;1.20;;
20241;SDS011;10279;46.388;8.116;2023-03-18T07:52:55;1.30;;;1.10;;
20241;SDS011;10279;46.388;8.116;2023-03-18T07:55:23;1.43;;;1.20;;
20241;SDS011;10279;46.388;8.116;2023-03-18T07:57:50;1.90;;;1.37;;
20241;SDS011;10279;46.388;8.116;2023-03-18T08:00:19;1.53;;;1.43;;
20241;SDS011;10279;46.388;8.116;2023-03-18T08:02:47;2.17;;;1.30;;
20241;SDS011;10279;46.388;8.116;2023-03-18T08:05:15;3.63;;;1.53;;
20241;SDS011;10279;46.388;8.116;2023-03-18T08:07:44;1.90;;;1.50;;
20241;SDS011;10279;46.388;8.116;2023-03-18T08:10:12;1.67;;;1.20;;
20241;SDS011;10279;46.388;8.116;2023-03-18T08:12:40;1.93;;;1.10;;
20241;SDS011;10279;46.388;8.116;2023-03-18T08:15:18;3.50;;;1.23;;
20241;SDS011;10279;46.388;8.116;2023-03-18T08:17:45;1.53;;;1.30;;
20241;SDS011;10279;46.388;8.116;2023-03-18T08:20:12;1.37;;;1.10;;
20241;SDS011;10279;46.388;8.116;2023-03-18T08:22:40;1.70;;;1.27;;
20241;SDS011;10279;46.388;8.116;2023-03-18T08:25:08;1.63;;;1.00;;
20241;SDS011;10279;46.388;8.116;2023-03-18T08:27:36;2.63;;;1.40;;
20241;SDS011;10279;46.388;8.116;2023-03-18T08:30:04;1.43;;;1.20;;
20241;SDS011;10279;46.388;8.116;2023-03-18T08:32:35;1.90;;;1.63;;
20241;SDS011;10279;46.388;8.116;2023-03-18T08:35:03;1.90;;;1.30;;
20241;SDS011;10279;46.388;8.116;2023-03-18T08:37:31;1.43;;;1.00;;
20241;SDS011;10279;46.388;8.116;2023-03-18T08:39:59;2.10;;;1.40;;
20241;SDS011;10279;46.388;8.116;2023-03-18T08:42:27;2.00;;;1.30;;
20241;SDS011;10279;46.388;8.116;2023-03-18T08:44:54;1.93;;;1.33;;
20241;SDS011;10279;46.388;8.116;2023-03-18T08:47:22;3.43;;;1.40;;
20241;SDS011;10279;46.388;8.116;2023-03-18T08:49:50;2.73;;;1.33;;
20241;SDS011;10279;46.388;8.116;2023-03-18T08:52:18;3.70;;;1.70;;
20241;SDS011;10279;46.388;8.116;2023-03-18T08:54:45;2.50;;;1.20;;
20241;SDS011;10279;46.388;8.116;2023-03-18T08:57:13;1.20;;;1.10;;
20241;SDS011;10279;46.388;8.116;2023-03-18T08:59:41;1.60;;;1.40;;
20241;SDS011;10279;46.388;8.116;2023-03-18T09:02:14;2.00;;;1.20;;
20241;SDS011;10279;46.388;8.116;2023-03-18T09:04:42;1.83;;;1.13;;
20241;SDS011;10279;46.388;8.116;2023-03-18T09:07:09;1.63;;;1.30;;
20241;SDS011;10279;46.388;8.116;2023-03-18T09:09:38;1.60;;;1.40;;
20241;SDS011;10279;46.388;8.116;2023-03-18T09:12:09;2.87;;;1.30;;
20241;SDS011;10279;46.388;8.116;2023-03-18T09:14:38;1.90;;;1.17;;
20241;SDS011;10279;46.388;8.116;2023-03-18T09:17:05;1.30;;;1.20;;
20241;SDS011;10279;46.388;8.116;2023-03-18T09:19:33;1.43;;;1.17;;
20241;SDS011;10279;46.388;8.116;2023-03-18T09:22:01;5.50;;;1.60;;
20241;SDS011;10279;46.388;8.116;2023-03-18T09:24:29;2.13;;;1.77;;
20241;SDS011;10279;46.388;8.116;2023-03-18T09:26:57;1.63;;;1.17;;
20241;SDS011;10279;46.388;8.116;2023-03-18T09:29:25;3.00;;;1.60;;
20241;SDS011;10279;46.388;8.116;2023-03-18T09:31:56;1.57;;;1.27;;
20241;SDS011;10279;46.388;8.116;2023-03-18T09:34:23;1.60;;;1.10;;
20241;SDS011;10279;46.388;8.116;2023-03-18T09:36:51;2.07;;;1.47;;
20241;SDS011;10279;46.388;8.116;2023-03-18T09:39:18;2.87;;;1.30;;
20241;SDS011;10279;46.388;8.116;2023-03-18T09:44:23;1.40;;;1.20;;
20241;SDS011;10279;46.388;8.116;2023-03-18T09:54:48;2.60;;;1.50;;
20241;SDS011;10279;46.388;8.116;2023-03-18T09:57:19;3.80;;;1.70;;
20241;SDS011;10279;46.388;8.116;2023-03-18T10:00:14;1.80;;;1.20;;
20241;SDS011;10279;46.388;8.116;2023-03-18T10:02:39;1.40;;;1.10;;
20241;SDS011;10279;46.388;8.116;2023-03-18T10:05:15;1.50;;;1.30;;
20241;SDS011;10279;46.388;8.116;2023-03-18T10:07:44;2.73;;;1.27;;
20241;SDS011;10279;46.388;8.116;2023-03-18T10:12:47;1.43;;;1.33;;
20241;SDS011;10279;46.388;8.116;2023-03-18T10:17:50;2.87;;;1.40;;
20241;SDS011;10279;46.388;8.116;2023-03-18T10:20:25;1.30;;;1.20;;
20241;SDS011;10279;46.388;8.116;2023-03-18T10:25:38;1.97;;;1.10;;
20241;SDS011;10279;46.388;8.116;2023-03-18T10:38:45;1.67;;;1.27;;
20241;SDS011;10279;46.388;8.116;2023-03-18T10:41:24;1.43;;;1.27;;
20241;SDS011;10279;46.388;8.116;2023-03-18T10:43:55;3.33;;;1.23;;
20241;SDS011;10279;46.388;8.116;2023-03-18T10:46:23;1.57;;;1.30;;
20241;SDS011;10279;46.388;8.116;2023-03-18T10:48:57;3.07;;;1.30;;
20241;SDS011;10279;46.388;8.116;2023-03-18T10:51:38;1.90;;;1.40;;
20241;SDS011;10279;46.388;8.116;2023-03-18T10:54:11;1.63;;;1.30;;
20241;SDS011;10279;46.388;8.116;2023-03-18T10:56:42;1.67;;;1.00;;
20241;SDS011;10279;46.388;8.116;2023-03-18T10:59:11;1.30;;;1.20;;
20241;SDS011;10279;46.388;8.116;2023-03-18T11:01:41;1.83;;;1.17;;
20241;SDS011;10279;46.388;8.116;2023-03-18T11:04:16;1.30;;;1.20;;
20241;SDS011;10279;46.388;8.116;2023-03-18T11:09:21;3.33;;;2.00;;
20241;SDS011;10279;46.388;8.116;2023-03-18T11:12:01;3.70;;;2.17;;
20241;SDS011;10279;46.388;8.116;2023-03-18T11:14:31;3.37;;;2.50;;
20241;SDS011;10279;46.388;8.116;2023-03-18T11:17:02;4.20;;;2.80;;
20241;SDS011;10279;46.388;8.116;2023-03-18T11:22:02;3.10;;;2.40;;
20241;SDS011;10279;46.388;8.116;2023-03-18T11:24:32;2.93;;;2.43;;
20241;SDS011;10279;46.388;8.116;2023-03-18T11:29:42;2.70;;;2.30;;
20241;SDS011;10279;46.388;8.116;2023-03-18T11:32:25;3.20;;;2.73;;
20241;SDS011;10279;46.388;8.116;2023-03-18T11:34:55;4.27;;;2.70;;
20241;SDS011;10279;46.388;8.116;2023-03-18T11:37:36;4.67;;;2.30;;
20241;SDS011;10279;46.388;8.116;2023-03-18T11:42:41;4.33;;;2.40;;
20241;SDS011;10279;46.388;8.116;2023-03-18T11:47:55;2.97;;;2.17;;
20241;SDS011;10279;46.388;8.116;2023-03-18T11:50:24;4.03;;;2.70;;
20241;SDS011;10279;46.388;8.116;2023-03-18T11:52:54;3.65;;;2.67;;
20241;SDS011;10279;46.388;8.116;2023-03-18T12:01:15;4.60;;;3.30;;
20241;SDS011;10279;46.388;8.116;2023-03-18T12:06:27;3.93;;;3.00;;
20241;SDS011;10279;46.388;8.116;2023-03-18T12:21:56;5.17;;;3.27;;
20241;SDS011;10279;46.388;8.116;2023-03-18T12:27:10;7.00;;;3.10;;
20241;SDS011;10279;46.388;8.116;2023-03-18T12:32:41;6.90;;;3.63;;
20241;SDS011;10279;46.388;8.116;2023-03-18T12:46:07;4.20;;;3.17;;
20241;SDS011;10279;46.388;8.116;2023-03-18T12:48:37;3.77;;;2.80;;
20241;SDS011;10279;46.388;8.116;2023-03-18T12:51:17;5.97;;;3.33;;
20241;SDS011;10279;46.388;8.116;2023-03-18T12:53:48;4.83;;;3.30;;
20241;SDS011;10279;46.388;8.116;2023-03-18T12:56:19;6.10;;;2.90;;
20241;SDS011;10279;46.388;8.116;2023-03-18T12:58:51;5.00;;;3.63;;
20241;SDS011;10279;46.388;8.116;2023-03-18T13:01:32;5.10;;;3.50;;
20241;SDS011;10279;46.388;8.116;2023-03-18T13:04:02;4.07;;;2.97;;
20241;SDS011;10279;46.388;8.116;2023-03-18T13:16:49;4.10;;;3.23;;
20241;SDS011;10279;46.388;8.116;2023-03-18T13:19:18;4.70;;;3.17;;
20241;SDS011;10279;46.388;8.116;2023-03-18T13:21:47;5.55;;;4.30;;
20241;SDS011;10279;46.388;8.116;2023-03-18T13:24:20;8.25;;;3.88;;
20241;SDS011;10279;46.388;8.116;2023-03-18T13:42:36;6.22;;;4.10;;
20241;SDS011;10279;46.388;8.116;2023-03-18T13:47:41;6.28;;;4.45;;
20241;SDS011;10279;46.388;8.116;2023-03-18T13:52:46;6.45;;;3.83;;
20241;SDS011;10279;46.388;8.116;2023-03-18T13:55:24;5.03;;;3.40;;
20241;SDS011;10279;46.388;8.116;2023-03-18T13:58:41;5.72;;;4.10;;
20241;SDS011;10279;46.388;8.116;2023-03-18T14:03:29;5.20;;;3.47;;
20241;SDS011;10279;46.388;8.116;2023-03-18T14:13:43;5.25;;;4.10;;
20241;SDS011;10279;46.388;8.116;2023-03-18T14:16:13;7.13;;;4.30;;
20241;SDS011;10279;46.388;8.116;2023-03-18T14:18:55;10.25;;;5.07;;
20241;SDS011;10279;46.388;8.116;2023-03-18T14:21:24;5.10;;;4.15;;
20241;SDS011;10279;46.388;8.116;2023-03-18T14:26:33;6.28;;;4.38;;
20241;SDS011;10279;46.388;8.116;2023-03-18T14:39:24;6.43;;;4.93;;
20241;SDS011;10279;46.388;8.116;2023-03-18T14:41:56;6.18;;;4.68;;
20241;SDS011;10279;46.388;8.116;2023-03-18T14:46:58;6.55;;;4.82;;
20241;SDS011;10279;46.388;8.116;2023-03-18T14:52:28;6.72;;;3.92;;
20241;SDS011;10279;46.388;8.116;2023-03-18T14:54:58;7.50;;;4.60;;
20241;SDS011;10279;46.388;8.116;2023-03-18T14:57:27;6.18;;;4.88;;
20241;SDS011;10279;46.388;8.116;2023-03-18T14:59:57;6.32;;;4.68;;
20241;SDS011;10279;46.388;8.116;2023-03-18T15:02:28;6.15;;;4.93;;
20241;SDS011;10279;46.388;8.116;2023-03-18T15:05:00;7.95;;;5.63;;
20241;SDS011;10279;46.388;8.116;2023-03-18T15:07:32;7.45;;;4.38;;
20241;SDS011;10279;46.388;8.116;2023-03-18T15:10:05;6.97;;;5.00;;
20241;SDS011;10279;46.388;8.116;2023-03-18T15:12:34;7.47;;;5.10;;
20241;SDS011;10279;46.388;8.116;2023-03-18T15:15:05;7.63;;;5.10;;
20241;SDS011;10279;46.388;8.116;2023-03-18T15:17:34;9.07;;;5.18;;
20241;SDS011;10279;46.388;8.116;2023-03-18T15:20:02;7.60;;;5.77;;
20241;SDS011;10279;46.388;8.116;2023-03-18T15:22:30;8.77;;;5.43;;
20241;SDS011;10279;46.388;8.116;2023-03-18T15:25:00;6.65;;;4.68;;
20241;SDS011;10279;46.388;8.116;2023-03-18T15:27:30;6.50;;;4.55;;
20241;SDS011;10279;46.388;8.116;2023-03-18T15:29:59;5.85;;;4.75;;
20241;SDS011;10279;46.388;8.116;2023-03-18T15:32:28;5.57;;;4.10;;
20241;SDS011;10279;46.388;8.116;2023-03-18T15:35:05;8.73;;;5.03;;
20241;SDS011;10279;46.388;8.116;2023-03-18T15:37:33;7.72;;;5.53;;
20241;SDS011;10279;46.388;8.116;2023-03-18T15:42:48;7.55;;;4.65;;
20241;SDS011;10279;46.388;8.116;2023-03-18T15:45:19;4.90;;;4.20;;
20241;SDS011;10279;46.388;8.116;2023-03-18T15:47:47;8.18;;;5.60;;
20241;SDS011;10279;46.388;8.116;2023-03-18T15:52:47;8.18;;;5.40;;
20241;SDS011;10279;46.388;8.116;2023-03-18T15:55:28;7.47;;;5.28;;
20241;SDS011;10279;46.388;8.116;2023-03-18T15:57:56;11.52;;;5.90;;
20241;SDS011;10279;46.388;8.116;2023-03-18T16:00:24;7.35;;;5.47;;
20241;SDS011;10279;46.388;8.116;2023-03-18T16:02:52;6.22;;;4.80;;
20241;SDS011;10279;46.388;8.116;2023-03-18T16:05:20;7.25;;;5.63;;
20241;SDS011;10279;46.388;8.116;2023-03-18T16:07:51;8.95;;;6.00;;
20241;SDS011;10279;46.388;8.116;2023-03-18T16:10:22;9.23;;;6.25;;
20241;SDS011;10279;46.388;8.116;2023-03-18T16:12:52;8.17;;;6.07;;
20241;SDS011;10279;46.388;8.116;2023-03-18T16:15:21;8.73;;;5.50;;
20241;SDS011;10279;46.388;8.116;2023-03-18T16:17:49;8.93;;;5.80;;
20241;SDS011;10279;46.388;8.116;2023-03-18T16:20:28;8.97;;;5.90;;
20241;SDS011;10279;46.388;8.116;2023-03-18T16:22:56;8.10;;;5.33;;
20241;SDS011;10279;46.388;8.116;2023-03-18T16:25:25;8.87;;;5.40;;
20241;SDS011;10279;46.388;8.116;2023-03-18T16:27:53;10.33;;;5.47;;
20241;SDS011;10279;46.388;8.116;2023-03-18T16:30:22;9.17;;;5.97;;
20241;SDS011;10279;46.388;8.116;2023-03-18T16:32:51;7.20;;;5.37;;
20241;SDS011;10279;46.388;8.116;2023-03-18T16:35:20;9.10;;;6.27;;
20241;SDS011;10279;46.388;8.116;2023-03-18T16:37:50;8.07;;;5.90;;
20241;SDS011;10279;46.388;8.116;2023-03-18T16:40:21;8.07;;;5.47;;
20241;SDS011;10279;46.388;8.116;2023-03-18T16:42:48;7.73;;;5.80;;
20241;SDS011;10279;46.388;8.116;2023-03-18T16:45:17;8.80;;;6.00;;
20241;SDS011;10279;46.388;8.116;2023-03-18T16:47:45;9.17;;;6.17;;
20241;SDS011;10279;46.388;8.116;2023-03-18T16:50:23;9.10;;;5.53;;
20241;SDS011;10279;46.388;8.116;2023-03-18T16:52:50;9.27;;;5.60;;
20241;SDS011;10279;46.388;8.116;2023-03-18T16:55:19;9.93;;;6.17;;
20241;SDS011;10279;46.388;8.116;2023-03-18T16:57:54;9.63;;;5.80;;
20241;SDS011;10279;46.388;8.116;2023-03-18T17:00:24;7.13;;;5.60;;
20241;SDS011;10279;46.388;8.116;2023-03-18T17:02:55;11.00;;;6.27;;
20241;SDS011;10279;46.388;8.116;2023-03-18T17:05:22;8.77;;;5.87;;
20241;SDS011;10279;46.388;8.116;2023-03-18T17:07:50;9.00;;;5.97;;
20241;SDS011;10279;46.388;8.116;2023-03-18T17:10:19;8.70;;;6.13;;
20241;SDS011;10279;46.388;8.116;2023-03-18T17:13:05;8.17;;;5.73;;
20241;SDS011;10279;46.388;8.116;2023-03-18T17:15:35;9.20;;;5.63;;
20241;SDS011;10279;46.388;8.116;2023-03-18T17:18:03;7.50;;;4.93;;
20241;SDS011;10279;46.388;8.116;2023-03-18T17:20:32;8.87;;;5.43;;
20241;SDS011;10279;46.388;8.116;2023-03-18T17:22:59;9.07;;;6.27;;
20241;SDS011;10279;46.388;8.116;2023-03-18T17:25:27;8.80;;;5.57;;
20241;SDS011;10279;46.388;8.116;2023-03-18T17:28:03;8.40;;;5.60;;
20241;SDS011;10279;46.388;8.116;2023-03-18T17:32:59;8.00;;;5.33;;